Time;durP1;ratioP1;P1;durP2;ratioP2;P2;SDS_P1;SDS_P2;PMS_P1;PMS_P2;Temp;Humidity;BMP_temperature;BMP_pressure;BME280_temperature;BME280_humidity;BME280_pressure;Samples;Min_cycle;Max_cycle;Signal;HPM_P1;HPM_P2
2022/01/03 00:01:27;;;;;;;0.50;0.10;;;10.20;1.00;;;;;;5116242;28;20481;-78
2022/01/03 00:03:57;;;;;;;0.60;0.10;;;10.30;1.00;;;;;;5116936;28;20453;-78
2022/01/03 00:06:24;;;;;;;0.60;0.10;;;10.40;1.00;;;;;;5116209;28;20536;-79
2022/01/03 00:08:53;;;;;;;0.60;0.10;;;10.50;1.00;;;;;;5130934;28;20444;-78
2022/01/03 00:11:22;;;;;;;0.60;0.20;;;10.60;1.00;;;;;;5127987;28;20456;-78
2022/01/03 00:13:51;;;;;;;1.07;0.73;;;10.60;1.00;;;;;;5130901;28;20443;-77
2022/01/03 00:16:20;;;;;;;0.60;0.10;;;10.70;1.00;;;;;;5121887;28;20464;-78
2022/01/03 00:18:49;;;;;;;0.60;0.10;;;10.60;1.00;;;;;;5121889;28;20440;-78
2022/01/03 00:21:19;;;;;;;0.60;0.20;;;10.70;1.00;;;;;;5120423;28;20458;-77
2022/01/03 00:23:50;;;;;;;0.57;0.10;;;10.70;1.00;;;;;;5125250;28;20447;-79
2022/01/03 00:26:24;;;;;;;0.70;0.20;;;10.70;1.00;;;;;;5124259;28;20479;-78
2022/01/03 00:28:57;;;;;;;0.60;0.10;;;10.70;1.00;;;;;;5118453;28;20481;-79
2022/01/03 00:31:33;;;;;;;1.03;0.77;;;10.70;1.00;;;;;;5122582;28;20432;-77
2022/01/03 00:34:05;;;;;;;0.60;0.20;;;10.80;1.00;;;;;;5122935;28;20442;-77
2022/01/03 00:36:35;;;;;;;3.03;1.70;;;10.80;1.00;;;;;;5122009;28;21048;-77
2022/01/03 00:39:07;;;;;;;0.60;0.10;;;10.80;1.00;;;;;;5122230;28;20499;-77
2022/01/03 00:41:38;;;;;;;0.60;0.10;;;10.80;1.00;;;;;;5120988;28;20478;-77
2022/01/03 00:44:07;;;;;;;0.57;0.10;;;10.90;1.00;;;;;;5121750;28;21019;-78
2022/01/03 00:46:35;;;;;;;0.60;0.20;;;10.90;1.00;;;;;;5125957;28;20483;-78
2022/01/03 00:49:05;;;;;;;0.93;0.70;;;11.00;1.00;;;;;;5123495;28;20435;-78
2022/01/03 00:51:35;;;;;;;0.60;0.10;;;11.00;1.00;;;;;;5117209;28;20454;-78
2022/01/03 00:54:03;;;;;;;0.60;0.10;;;11.00;1.00;;;;;;5116006;28;20458;-78
2022/01/03 00:56:35;;;;;;;1.77;0.50;;;11.00;1.00;;;;;;5115526;28;20980;-79
2022/01/03 00:59:07;;;;;;;0.60;0.20;;;11.00;1.00;;;;;;5121749;28;20424;-78
2022/01/03 01:01:37;;;;;;;1.57;0.20;;;11.10;1.00;;;;;;5118447;28;20498;-78
2022/01/03 01:04:08;;;;;;;0.50;0.10;;;11.10;1.00;;;;;;5118389;28;20818;-78
2022/01/03 01:06:39;;;;;;;0.60;0.10;;;11.10;1.00;;;;;;5117172;28;20490;-77
2022/01/03 01:09:11;;;;;;;0.60;0.10;;;11.20;1.00;;;;;;5119117;28;20439;-78
2022/01/03 01:11:43;;;;;;;0.60;0.20;;;11.30;1.00;;;;;;5118429;28;20940;-78
2022/01/03 01:14:12;;;;;;;0.70;0.30;;;11.30;1.00;;;;;;5117648;28;20444;-77
2022/01/03 01:16:41;;;;;;;0.60;0.37;;;11.20;1.00;;;;;;5115792;28;20463;-79
2022/01/03 01:19:09;;;;;;;0.87;0.50;;;11.20;1.00;;;;;;5118017;28;20450;-78
2022/01/03 01:21:38;;;;;;;0.60;0.10;;;11.20;1.00;;;;;;5119990;28;20538;-77
2022/01/03 01:24:07;;;;;;;0.57;0.10;;;11.20;1.00;;;;;;5121432;28;20444;-78
2022/01/03 01:29:21;;;;;;;0.60;0.10;;;11.20;1.00;;;;;;5115972;28;20454;-78
2022/01/03 01:31:50;;;;;;;0.53;0.10;;;11.20;1.00;;;;;;5115536;28;20444;-78
2022/01/03 01:34:22;;;;;;;0.60;0.23;;;11.20;1.00;;;;;;5115298;28;20457;-78
2022/01/03 01:36:54;;;;;;;0.60;0.10;;;11.20;1.00;;;;;;5115928;28;20866;-78
2022/01/03 01:39:24;;;;;;;0.60;0.10;;;11.20;1.00;;;;;;5115106;28;20439;-78
2022/01/03 01:42:03;;;;;;;0.93;0.50;;;11.20;1.00;;;;;;5114437;28;20798;-78
2022/01/03 01:44:33;;;;;;;0.70;0.27;;;11.10;1.00;;;;;;5114450;28;20465;-78
2022/01/03 01:47:04;;;;;;;4.83;4.43;;;11.10;1.00;;;;;;5121046;28;20459;-77
2022/01/03 01:49:38;;;;;;;0.60;0.30;;;11.10;1.00;;;;;;5121818;28;20447;-79
2022/01/03 01:52:16;;;;;;;0.60;0.10;;;11.10;1.00;;;;;;5117219;28;20443;-78
2022/01/03 01:54:51;;;;;;;0.60;0.10;;;11.10;1.00;;;;;;5114479;28;20446;-78
2022/01/03 01:57:21;;;;;;;0.60;0.10;;;11.10;1.00;;;;;;5114426;28;20458;-77
2022/01/03 02:00:06;;;;;;;0.60;0.27;;;11.10;1.00;;;;;;5113888;28;20551;-78
2022/01/03 02:02:36;;;;;;;0.50;0.10;;;11.10;1.00;;;;;;5106270;28;20970;-77
2022/01/03 02:05:16;;;;;;;0.60;0.10;;;11.20;1.00;;;;;;5093210;28;20958;-76
2022/01/03 02:08:12;;;;;;;0.60;0.10;;;11.30;1.00;;;;;;5091565;28;20527;-77
2022/01/03 02:10:42;;;;;;;0.60;0.20;;;11.30;1.00;;;;;;5092838;28;20463;-77
2022/01/03 02:13:11;;;;;;;1.63;0.93;;;11.30;1.00;;;;;;5092268;28;20432;-76
2022/01/03 02:15:44;;;;;;;0.60;0.10;;;11.20;1.00;;;;;;5095699;28;20447;-77
2022/01/03 02:18:12;;;;;;;1.00;0.60;;;11.20;1.00;;;;;;5102047;28;20433;-77
2022/01/03 02:20:41;;;;;;;0.60;0.20;;;11.20;1.00;;;;;;5104344;28;20453;-78
2022/01/03 02:23:09;;;;;;;0.60;0.10;;;11.10;1.00;;;;;;5102630;28;20482;-77
2022/01/03 02:25:37;;;;;;;5.90;0.50;;;11.00;1.00;;;;;;5095757;28;20447;-78
2022/01/03 02:28:05;;;;;;;0.70;0.20;;;11.00;1.00;;;;;;5096268;28;20915;-76
2022/01/03 02:30:35;;;;;;;0.60;0.10;;;11.00;1.00;;;;;;5094811;28;20467;-77
2022/01/03 02:33:03;;;;;;;0.60;0.10;;;10.90;1.00;;;;;;5092365;28;20451;-77
2022/01/03 02:35:35;;;;;;;1.43;0.40;;;10.90;1.00;;;;;;5092153;28;20440;-77
2022/01/03 02:38:04;;;;;;;0.60;0.10;;;10.90;1.00;;;;;;5092228;28;20455;-77
2022/01/03 02:40:32;;;;;;;0.60;0.10;;;10.90;1.00;;;;;;5106896;28;20451;-77
2022/01/03 02:43:00;;;;;;;1.50;0.30;;;10.90;1.00;;;;;;5113004;28;20952;-78
2022/01/03 02:45:28;;;;;;;0.60;0.10;;;10.80;1.00;;;;;;5113872;28;20439;-77
2022/01/03 02:47:59;;;;;;;0.57;0.10;;;10.80;1.00;;;;;;5115280;28;20483;-78
2022/01/03 02:50:28;;;;;;;0.60;0.20;;;10.70;1.00;;;;;;5117016;28;20482;-78
2022/01/03 02:52:56;;;;;;;0.60;0.10;;;10.70;1.00;;;;;;5114324;28;20929;-77
2022/01/03 02:55:27;;;;;;;3.87;0.57;;;10.70;1.00;;;;;;5112241;28;20447;-77
2022/01/03 02:57:56;;;;;;;1.10;0.40;;;10.70;1.00;;;;;;5112783;28;20415;-77
2022/01/03 03:00:27;;;;;;;1.57;0.57;;;10.70;1.00;;;;;;5115152;28;20448;-77
2022/01/03 03:02:55;;;;;;;0.83;0.43;;;10.70;1.00;;;;;;5114204;28;20420;-77
2022/01/03 03:05:23;;;;;;;0.60;0.20;;;10.70;1.00;;;;;;5112591;28;20451;-77
2022/01/03 03:07:53;;;;;;;0.80;0.20;;;10.60;1.00;;;;;;5113380;28;20486;-78
2022/01/03 03:10:24;;;;;;;0.60;0.10;;;10.70;1.00;;;;;;5113000;28;20822;-77
2022/01/03 03:12:53;;;;;;;3.23;0.70;;;10.60;1.00;;;;;;5112967;28;20458;-78
2022/01/03 03:15:21;;;;;;;0.60;0.10;;;10.60;1.00;;;;;;5113373;28;20952;-78
2022/01/03 03:17:50;;;;;;;0.60;0.10;;;10.60;1.00;;;;;;5113787;28;20558;-78
2022/01/03 03:20:20;;;;;;;0.60;0.10;;;10.60;1.00;;;;;;5113620;28;20423;-78
2022/01/03 03:22:49;;;;;;;0.60;0.20;;;10.60;1.00;;;;;;5113944;28;20527;-78
2022/01/03 03:25:19;;;;;;;6.03;1.27;;;10.60;1.00;;;;;;5113701;28;20447;-78
2022/01/03 03:27:50;;;;;;;0.60;0.20;;;10.60;1.00;;;;;;5125250;28;20475;-77
2022/01/03 03:30:22;;;;;;;0.60;0.17;;;10.60;1.00;;;;;;5098291;28;20444;-78
2022/01/03 03:32:53;;;;;;;0.70;0.20;;;10.60;1.00;;;;;;5094967;28;20425;-77
2022/01/03 03:35:21;;;;;;;24.33;1.60;;;10.60;1.00;;;;;;5097901;28;20451;-77
2022/01/03 03:37:49;;;;;;;2.53;1.37;;;10.60;1.00;;;;;;5100819;28;20452;-76
2022/01/03 03:40:17;;;;;;;0.60;0.20;;;10.60;1.00;;;;;;5097809;28;20459;-78
2022/01/03 03:42:46;;;;;;;0.60;0.20;;;10.70;1.00;;;;;;5096026;28;20503;-78
2022/01/03 03:45:14;;;;;;;0.70;0.57;;;10.60;1.00;;;;;;5096613;28;20439;-78
2022/01/03 03:47:44;;;;;;;0.60;0.10;;;10.60;1.00;;;;;;5096260;28;20484;-77
2022/01/03 03:50:12;;;;;;;0.60;0.10;;;10.60;1.00;;;;;;5096943;28;20439;-78
2022/01/03 03:52:40;;;;;;;1.60;0.53;;;10.60;1.00;;;;;;5097459;28;20481;-77
2022/01/03 03:55:09;;;;;;;0.60;0.20;;;10.60;1.00;;;;;;5101939;28;20448;-78
2022/01/03 03:57:37;;;;;;;0.90;0.50;;;10.60;1.00;;;;;;5103875;28;20479;-78
2022/01/03 04:00:07;;;;;;;0.60;0.10;;;10.70;1.00;;;;;;5097418;28;20449;-78
2022/01/03 04:02:35;;;;;;;0.60;0.10;;;10.70;1.00;;;;;;5101415;28;20444;-78
2022/01/03 04:05:05;;;;;;;0.60;0.10;;;10.70;1.00;;;;;;5100170;28;20444;-78
2022/01/03 04:07:33;;;;;;;0.60;0.10;;;10.70;1.00;;;;;;5097289;28;20476;-78
2022/01/03 04:10:01;;;;;;;0.70;0.37;;;10.70;1.00;;;;;;5104951;28;20942;-78
2022/01/03 04:12:29;;;;;;;3.40;0.63;;;10.70;1.00;;;;;;5101718;28;20535;-78
2022/01/03 04:14:57;;;;;;;0.60;0.10;;;10.70;1.00;;;;;;5096986;28;20444;-77
2022/01/03 04:17:25;;;;;;;0.60;0.10;;;10.70;1.00;;;;;;5096924;28;20472;-80
2022/01/03 04:19:53;;;;;;;0.60;0.10;;;10.70;1.00;;;;;;5097462;28;20535;-79
2022/01/03 04:22:22;;;;;;;0.60;0.30;;;10.70;1.00;;;;;;5096933;28;20825;-79
2022/01/03 04:24:50;;;;;;;0.60;0.10;;;10.70;1.00;;;;;;5097187;28;20521;-80
2022/01/03 04:27:18;;;;;;;0.60;0.20;;;10.60;1.00;;;;;;5097804;28;20465;-78
2022/01/03 04:29:46;;;;;;;0.60;0.20;;;10.50;1.00;;;;;;5098917;28;20749;-79
2022/01/03 04:32:14;;;;;;;0.60;0.17;;;10.50;1.00;;;;;;5102716;28;20448;-79
2022/01/03 04:34:42;;;;;;;0.60;0.10;;;10.50;1.00;;;;;;5110355;28;20433;-79
2022/01/03 04:37:10;;;;;;;0.87;0.30;;;10.40;1.00;;;;;;5106191;28;20614;-79
2022/01/03 04:39:39;;;;;;;0.60;0.23;;;10.40;1.00;;;;;;5098767;28;20433;-79
2022/01/03 04:42:08;;;;;;;0.60;0.10;;;10.40;1.00;;;;;;5096951;28;20444;-79
2022/01/03 04:44:35;;;;;;;0.60;0.30;;;10.40;1.00;;;;;;5097179;28;20997;-79
2022/01/03 04:47:04;;;;;;;1.00;0.30;;;10.40;1.00;;;;;;5098718;28;20465;-79
2022/01/03 04:49:32;;;;;;;0.60;0.10;;;10.40;1.00;;;;;;5097920;28;20536;-79
2022/01/03 04:52:00;;;;;;;0.60;0.20;;;10.30;1.00;;;;;;5098980;28;20449;-78
2022/01/03 04:54:28;;;;;;;0.60;0.20;;;10.30;1.00;;;;;;5097454;28;20448;-78
2022/01/03 04:56:59;;;;;;;0.60;0.10;;;10.40;1.00;;;;;;5098674;28;20822;-79
2022/01/03 04:59:27;;;;;;;0.80;0.40;;;10.40;1.00;;;;;;5099051;28;20494;-79
2022/01/03 05:01:55;;;;;;;0.60;0.10;;;10.40;1.00;;;;;;5097858;28;20818;-79
2022/01/03 05:04:24;;;;;;;0.60;0.10;;;10.40;1.00;;;;;;5107045;28;20902;-79
2022/01/03 05:06:52;;;;;;;0.60;0.10;;;10.40;1.00;;;;;;5103782;28;20555;-79
2022/01/03 05:09:20;;;;;;;0.80;0.57;;;10.40;1.00;;;;;;5096644;28;20506;-79
2022/01/03 05:11:48;;;;;;;0.60;0.10;;;10.40;1.00;;;;;;5099940;28;20448;-79
2022/01/03 05:14:17;;;;;;;0.60;0.20;;;10.40;1.00;;;;;;5097677;28;20449;-79
2022/01/03 05:16:45;;;;;;;0.60;0.10;;;10.50;1.00;;;;;;5096660;28;20480;-79
2022/01/03 05:19:13;;;;;;;0.60;0.20;;;10.50;1.00;;;;;;5096169;28;20424;-78
2022/01/03 05:21:41;;;;;;;0.60;0.20;;;10.40;1.00;;;;;;5095802;28;20433;-78
2022/01/03 05:24:08;;;;;;;0.60;0.20;;;10.50;1.00;;;;;;5095621;28;20524;-79
2022/01/03 05:26:36;;;;;;;0.60;0.10;;;10.40;1.00;;;;;;5098599;28;20456;-78
2022/01/03 05:29:04;;;;;;;0.60;0.20;;;10.40;1.00;;;;;;5097500;28;21061;-78
2022/01/03 05:31:33;;;;;;;5.83;0.50;;;10.40;1.00;;;;;;5102635;28;20458;-79
2022/01/03 05:34:02;;;;;;;0.60;0.10;;;10.30;1.00;;;;;;5114521;28;20485;-78
2022/01/03 05:36:30;;;;;;;0.60;0.10;;;10.40;1.00;;;;;;5115459;28;20467;-78
2022/01/03 05:38:58;;;;;;;0.60;0.10;;;10.40;1.00;;;;;;5114358;28;20508;-78
2022/01/03 05:41:26;;;;;;;0.70;0.20;;;10.30;1.00;;;;;;5115368;28;20451;-79
2022/01/03 05:43:56;;;;;;;0.60;0.10;;;10.30;1.00;;;;;;5115851;28;20445;-79
2022/01/03 05:46:24;;;;;;;0.60;0.20;;;10.30;1.00;;;;;;5124345;28;20463;-77
2022/01/03 05:48:53;;;;;;;1.00;0.33;;;10.20;1.00;;;;;;5125357;28;20566;-79
2022/01/03 05:51:21;;;;;;;0.60;0.17;;;10.20;1.00;;;;;;5119770;28;20534;-79
2022/01/03 05:53:49;;;;;;;0.60;0.10;;;10.20;1.00;;;;;;5121596;28;20469;-79
2022/01/03 05:56:17;;;;;;;1.93;0.37;;;10.20;1.00;;;;;;5120241;28;20470;-79
2022/01/03 05:58:45;;;;;;;0.70;0.37;;;10.20;1.00;;;;;;5122097;28;20436;-78
2022/01/03 06:01:13;;;;;;;0.53;0.10;;;10.20;1.00;;;;;;5118328;28;20813;-78
2022/01/03 06:03:41;;;;;;;0.60;0.10;;;10.20;1.00;;;;;;5122318;28;20501;-78
2022/01/03 06:06:31;;;;;;;0.60;0.10;;;10.30;1.00;;;;;;5120212;28;20454;-77
2022/01/03 06:08:59;;;;;;;0.60;0.10;;;10.30;1.00;;;;;;5118754;28;20983;-79
2022/01/03 06:11:27;;;;;;;0.60;0.10;;;10.40;1.00;;;;;;5120314;28;20447;-78
2022/01/03 06:13:55;;;;;;;0.60;0.30;;;10.40;1.00;;;;;;5121130;28;20440;-78
2022/01/03 06:16:24;;;;;;;0.60;0.10;;;10.40;1.00;;;;;;5121634;28;20467;-78
2022/01/03 06:18:52;;;;;;;0.60;0.10;;;10.50;1.00;;;;;;5114520;28;20427;-79
2022/01/03 06:21:23;;;;;;;0.60;0.10;;;10.40;1.00;;;;;;5114808;28;20427;-79
2022/01/03 06:23:51;;;;;;;0.60;0.10;;;10.50;1.00;;;;;;5118889;28;20505;-79
2022/01/03 06:26:19;;;;;;;0.60;0.10;;;10.50;1.00;;;;;;5119923;28;20459;-79
2022/01/03 06:28:47;;;;;;;0.60;0.10;;;10.50;1.00;;;;;;5115476;28;20479;-79
2022/01/03 06:31:15;;;;;;;0.60;0.10;;;10.50;1.00;;;;;;5116823;28;20431;-79
2022/01/03 06:33:43;;;;;;;0.60;0.10;;;10.40;1.00;;;;;;5119014;28;20447;-79
2022/01/03 06:36:10;;;;;;;0.60;0.10;;;10.40;1.00;;;;;;5122719;28;20547;-78
2022/01/03 06:38:40;;;;;;;0.53;0.10;;;10.40;1.00;;;;;;5117518;28;20518;-80
2022/01/03 06:41:07;;;;;;;0.60;0.10;;;10.40;1.00;;;;;;5115968;28;20791;-79
2022/01/03 06:43:36;;;;;;;0.60;0.10;;;10.40;1.00;;;;;;5117752;28;20443;-79
2022/01/03 06:46:04;;;;;;;0.60;0.10;;;10.40;1.00;;;;;;5114632;28;20466;-79
2022/01/03 06:48:32;;;;;;;0.60;0.10;;;10.40;1.00;;;;;;5115323;28;20439;-79
2022/01/03 06:51:00;;;;;;;0.60;0.27;;;10.40;1.00;;;;;;5121104;28;20442;-79
2022/01/03 06:53:28;;;;;;;0.50;0.10;;;10.40;1.00;;;;;;5121392;28;20542;-79
2022/01/03 06:55:57;;;;;;;0.50;0.10;;;10.20;1.00;;;;;;5118844;28;20470;-79
2022/01/03 06:58:25;;;;;;;0.60;0.20;;;10.20;1.00;;;;;;5116121;28;20782;-78
2022/01/03 07:00:53;;;;;;;0.60;0.13;;;10.10;1.00;;;;;;5116189;28;20444;-79
2022/01/03 07:03:21;;;;;;;0.60;0.10;;;10.10;1.00;;;;;;5114278;28;20461;-78
2022/01/03 07:05:49;;;;;;;0.60;0.10;;;10.10;1.00;;;;;;5112311;28;20522;-78
2022/01/03 07:08:20;;;;;;;0.60;0.10;;;10.10;1.00;;;;;;5115535;28;20463;-77
2022/01/03 07:10:48;;;;;;;0.60;0.10;;;10.10;1.00;;;;;;5118687;28;20482;-78
2022/01/03 07:13:17;;;;;;;0.50;0.10;;;10.10;1.00;;;;;;5120234;28;20448;-78
2022/01/03 07:21:17;;;;;;;0.50;0.10;;;10.10;1.00;;;;;;5107349;28;20479;-79
2022/01/03 07:23:45;;;;;;;0.60;0.30;;;10.10;1.00;;;;;;5099829;28;20467;-77
2022/01/03 07:26:13;;;;;;;1.53;0.40;;;10.10;1.00;;;;;;5097720;28;20460;-79
2022/01/03 07:28:42;;;;;;;0.60;0.10;;;10.10;1.00;;;;;;5108215;28;20447;-80
2022/01/03 07:31:10;;;;;;;0.60;0.10;;;10.00;1.00;;;;;;5113535;28;20482;-79
2022/01/03 07:33:38;;;;;;;0.70;0.50;;;10.00;1.00;;;;;;5097960;28;20859;-79
2022/01/03 07:36:06;;;;;;;0.60;0.10;;;9.90;1.00;;;;;;5099200;28;20467;-79
2022/01/03 07:38:34;;;;;;;0.70;0.47;;;9.90;1.00;;;;;;5100016;28;20531;-78
2022/01/03 07:41:03;;;;;;;0.60;0.17;;;9.90;1.00;;;;;;5109960;28;20526;-79
2022/01/03 07:43:31;;;;;;;0.60;0.10;;;9.90;1.00;;;;;;5106468;28;20534;-78
2022/01/03 07:46:00;;;;;;;0.60;0.20;;;9.90;1.00;;;;;;5103132;28;20452;-77
2022/01/03 07:48:28;;;;;;;0.60;0.30;;;9.90;1.00;;;;;;5109350;28;20831;-79
2022/01/03 07:50:56;;;;;;;0.73;0.40;;;9.90;1.00;;;;;;5107100;28;20472;-79
2022/01/03 07:53:24;;;;;;;0.60;0.20;;;9.80;1.00;;;;;;5100987;28;20466;-79
2022/01/03 07:55:52;;;;;;;0.60;0.10;;;9.80;1.00;;;;;;5099263;28;20483;-80
2022/01/03 07:58:19;;;;;;;0.60;0.10;;;9.80;1.00;;;;;;5100526;28;20470;-78
2022/01/03 08:00:48;;;;;;;0.60;0.20;;;9.90;1.00;;;;;;5102516;28;20451;-80
2022/01/03 08:03:17;;;;;;;1.27;0.77;;;9.90;1.00;;;;;;5099457;28;20436;-80
2022/01/03 08:06:04;;;;;;;0.80;0.27;;;9.90;1.00;;;;;;5105800;28;20479;-79
2022/01/03 08:08:32;;;;;;;2.00;0.30;;;9.90;1.00;;;;;;5112521;28;20549;-79
2022/01/03 08:11:00;;;;;;;0.60;0.20;;;9.80;1.00;;;;;;5099254;28;20542;-78
2022/01/03 08:13:28;;;;;;;0.60;0.10;;;9.80;1.00;;;;;;5105534;28;20946;-78
2022/01/03 08:15:56;;;;;;;0.50;0.10;;;9.80;1.00;;;;;;5098086;28;20468;-79
2022/01/03 08:18:25;;;;;;;0.60;0.10;;;9.80;1.00;;;;;;5100123;28;20524;-79
2022/01/03 08:20:53;;;;;;;0.50;0.10;;;9.90;1.00;;;;;;5099820;28;20534;-78
2022/01/03 08:23:21;;;;;;;0.50;0.10;;;9.90;1.00;;;;;;5107337;28;20462;-77
2022/01/03 08:25:49;;;;;;;0.57;0.13;;;10.00;1.00;;;;;;5110077;28;20484;-78
2022/01/03 08:28:17;;;;;;;0.50;0.10;;;10.00;1.00;;;;;;5111184;28;20447;-78
2022/01/03 08:30:45;;;;;;;0.60;0.10;;;10.00;1.00;;;;;;5124718;28;21023;-80
2022/01/03 08:33:13;;;;;;;0.50;0.10;;;10.00;1.00;;;;;;5122800;28;20475;-80
2022/01/03 08:35:42;;;;;;;0.57;0.10;;;10.00;1.00;;;;;;5127366;28;20447;-79
2022/01/03 08:38:10;;;;;;;0.57;0.10;;;10.00;1.00;;;;;;5128580;28;20451;-80
2022/01/03 08:40:39;;;;;;;0.60;0.30;;;10.10;1.00;;;;;;5129627;28;20437;-79
2022/01/03 08:43:07;;;;;;;0.50;0.10;;;10.10;1.00;;;;;;5128502;28;20793;-80
2022/01/03 08:45:35;;;;;;;0.60;0.10;;;10.10;1.00;;;;;;5133090;28;20478;-79
2022/01/03 08:48:07;;;;;;;0.60;0.10;;;10.10;1.00;;;;;;5109437;28;20450;-79
2022/01/03 08:50:35;;;;;;;6.63;1.73;;;10.10;1.00;;;;;;5108419;28;20555;-79
2022/01/03 08:53:04;;;;;;;0.50;0.20;;;10.10;1.00;;;;;;5105160;28;20452;-79
2022/01/03 08:55:33;;;;;;;0.50;0.10;;;10.10;1.00;;;;;;5114995;28;20503;-81
2022/01/03 08:58:01;;;;;;;0.60;0.37;;;10.10;1.00;;;;;;5120350;28;20447;-78
2022/01/03 09:00:29;;;;;;;0.60;0.20;;;10.10;1.00;;;;;;5121097;28;20925;-79
2022/01/03 09:02:56;;;;;;;0.57;0.17;;;10.20;1.00;;;;;;5117693;28;20455;-79
2022/01/03 09:05:25;;;;;;;0.60;0.30;;;10.20;1.00;;;;;;5116365;28;20543;-80
2022/01/03 09:07:53;;;;;;;0.60;0.30;;;10.20;1.00;;;;;;5115554;28;20439;-79
2022/01/03 09:10:23;;;;;;;0.60;0.10;;;10.20;1.00;;;;;;5117012;28;20483;-78
2022/01/03 09:12:51;;;;;;;0.60;0.20;;;10.20;1.00;;;;;;5118741;27;20452;-79
2022/01/03 09:15:18;;;;;;;0.60;0.10;;;10.30;1.00;;;;;;5117407;28;20798;-81
2022/01/03 09:17:48;;;;;;;0.50;0.10;;;10.30;1.00;;;;;;5115625;28;20479;-79
2022/01/03 09:20:16;;;;;;;0.60;0.10;;;10.40;1.00;;;;;;5111176;28;20478;-80
2022/01/03 09:22:47;;;;;;;0.50;0.10;;;10.40;1.00;;;;;;5116943;28;20436;-80
2022/01/03 09:30:50;;;;;;;0.60;0.20;;;10.50;1.00;;;;;;5098217;28;20850;-79
2022/01/03 09:33:19;;;;;;;6.23;2.50;;;10.50;1.00;;;;;;5100337;28;20787;-79
2022/01/03 09:35:52;;;;;;;0.60;0.10;;;10.40;1.00;;;;;;5097300;28;20543;-79
2022/01/03 09:38:20;;;;;;;0.93;0.70;;;10.40;1.00;;;;;;5098840;28;20429;-79
2022/01/03 09:40:49;;;;;;;0.60;0.10;;;10.50;1.00;;;;;;5102680;28;20444;-79
2022/01/03 09:43:20;;;;;;;0.60;0.20;;;10.50;1.00;;;;;;5106329;28;20995;-80
2022/01/03 09:45:48;;;;;;;0.50;0.10;;;10.60;1.00;;;;;;5105914;28;20463;-78
2022/01/03 09:48:18;;;;;;;0.60;0.10;;;10.60;1.00;;;;;;5108071;28;20445;-80
2022/01/03 09:50:46;;;;;;;0.60;0.10;;;10.70;1.00;;;;;;5116890;28;20475;-79
2022/01/03 09:53:15;;;;;;;0.60;0.10;;;10.70;1.00;;;;;;5125854;28;20436;-80
2022/01/03 09:55:43;;;;;;;0.57;0.10;;;10.80;1.00;;;;;;5119047;28;20535;-80
2022/01/03 09:58:14;;;;;;;0.60;0.20;;;10.80;1.00;;;;;;5125289;28;20432;-80
2022/01/03 10:00:44;;;;;;;0.60;0.10;;;10.80;1.00;;;;;;5123384;28;20430;-80
2022/01/03 10:03:12;;;;;;;0.80;0.80;;;10.80;1.00;;;;;;5126222;28;20427;-79
2022/01/03 10:05:40;;;;;;;0.60;0.10;;;10.80;1.00;;;;;;5124057;28;20447;-79
2022/01/03 10:08:08;;;;;;;0.60;0.10;;;10.80;1.00;;;;;;5122702;28;20473;-79
2022/01/03 10:10:36;;;;;;;1.30;1.20;;;10.80;1.00;;;;;;5131386;28;20471;-80
2022/01/03 10:13:04;;;;;;;1.63;0.97;;;10.80;1.00;;;;;;5124638;28;20547;-80
2022/01/03 10:15:32;;;;;;;0.60;0.20;;;10.80;1.00;;;;;;5116084;28;20451;-80
2022/01/03 10:18:02;;;;;;;2.70;0.77;;;10.80;1.00;;;;;;5133120;22;20574;-75
2022/01/03 10:20:32;;;;;;;1.13;1.03;;;10.80;1.00;;;;;;5113954;28;20879;-74
2022/01/03 10:23:09;;;;;;;0.60;0.10;;;10.70;1.00;;;;;;5113707;28;20505;-75
2022/01/03 10:25:37;;;;;;;0.60;0.10;;;10.70;1.00;;;;;;5112039;28;20454;-75
2022/01/03 10:28:05;;;;;;;0.80;0.40;;;10.70;1.00;;;;;;5101834;28;20461;-76
2022/01/03 10:30:38;;;;;;;1.57;0.93;;;10.70;1.00;;;;;;5093176;28;20934;-74
2022/01/03 10:33:10;;;;;;;0.60;0.10;;;10.70;1.00;;;;;;5094075;28;20527;-75
2022/01/03 10:35:41;;;;;;;0.60;0.20;;;10.70;1.00;;;;;;5097266;28;20462;-76
2022/01/03 10:38:09;;;;;;;0.60;0.10;;;10.80;1.00;;;;;;5114476;28;20461;-74
2022/01/03 10:40:39;;;;;;;0.60;0.17;;;10.80;1.00;;;;;;5112903;28;20463;-75
2022/01/03 10:43:16;;;;;;;0.80;0.40;;;10.90;1.00;;;;;;5113333;28;20436;-73
2022/01/03 10:45:44;;;;;;;0.70;0.40;;;;;;;;;;5113166;28;20447;-74
2022/01/03 10:48:29;;;;;;;0.60;0.10;;;10.90;1.00;;;;;;5117326;28;20463;-75
2022/01/03 10:51:00;;;;;;;0.60;0.10;;;10.90;1.00;;;;;;5115243;28;20486;-74
2022/01/03 10:53:36;;;;;;;0.60;0.10;;;10.90;1.00;;;;;;5109094;28;20463;-75
2022/01/03 10:56:28;;;;;;;0.53;0.10;;;10.90;1.00;;;;;;5094852;28;20526;-76
2022/01/03 10:59:18;;;;;;;0.60;0.20;;;10.90;1.00;;;;;;5095653;28;20440;-76
2022/01/03 11:01:48;;;;;;;0.50;0.10;;;10.90;1.00;;;;;;5096786;28;20479;-74
2022/01/03 11:04:30;;;;;;;0.60;0.10;;;10.90;1.00;;;;;;5097046;28;20470;-76
2022/01/03 11:13:11;;;;;;;4.63;1.50;;;10.70;1.00;;;;;;5097866;28;20502;-75
2022/01/03 11:15:41;;;;;;;2.00;0.60;;;10.70;1.00;;;;;;5096166;28;20445;-77
2022/01/03 11:18:21;;;;;;;7.40;1.93;;;10.70;1.00;;;;;;5096539;28;20488;-76
2022/01/03 11:21:03;;;;;;;0.60;0.20;;;10.60;1.00;;;;;;5097759;28;20510;-77
2022/01/03 11:23:34;;;;;;;1.60;0.60;;;10.60;1.00;;;;;;5096545;28;20501;-75
2022/01/03 11:26:06;;;;;;;0.60;0.10;;;10.60;1.00;;;;;;5096381;28;20435;-77
2022/01/03 11:28:35;;;;;;;0.60;0.30;;;10.60;1.00;;;;;;5096316;28;20447;-75
2022/01/03 11:31:04;;;;;;;0.50;0.10;;;10.60;1.00;;;;;;5106658;27;20475;-75
2022/01/03 11:33:32;;;;;;;5.53;0.93;;;10.60;1.00;;;;;;5117102;28;20446;-75
2022/01/03 11:36:24;;;;;;;1.03;0.63;;;;;;;;;;5112104;28;20455;-77
2022/01/03 11:38:54;;;;;;;0.60;0.10;;;10.60;1.00;;;;;;5117661;28;20521;-76
2022/01/03 11:41:22;;;;;;;0.50;0.10;;;10.60;1.00;;;;;;5117180;28;20477;-77
2022/01/03 11:43:51;;;;;;;2.03;0.57;;;10.60;1.00;;;;;;5118194;28;20493;-77
2022/01/03 11:46:19;;;;;;;0.57;0.17;;;10.60;1.00;;;;;;5117361;28;20933;-75
2022/01/03 11:48:47;;;;;;;0.70;0.53;;;10.60;1.00;;;;;;5117099;28;20824;-76
2022/01/03 11:51:16;;;;;;;0.60;0.10;;;10.70;1.00;;;;;;5117495;28;20467;-76
2022/01/03 11:53:48;;;;;;;0.50;0.10;;;10.70;1.00;;;;;;5117705;28;20435;-78
2022/01/03 11:56:18;;;;;;;1.47;1.17;;;10.80;1.00;;;;;;5117978;28;20807;-78
2022/01/03 11:58:56;;;;;;;0.60;0.10;;;10.80;1.00;;;;;;5117683;28;20511;-75
2022/01/03 12:04:23;;;;;;;0.57;0.20;;;10.80;1.00;;;;;;5117377;28;20470;-77
2022/01/03 12:07:04;;;;;;;0.57;0.10;;;11.00;1.00;;;;;;5098080;28;20468;-75
2022/01/03 12:09:37;;;;;;;0.60;0.10;;;11.10;1.00;;;;;;5103721;28;20450;-78
2022/01/03 12:12:06;;;;;;;0.60;0.10;;;11.10;1.00;;;;;;5108830;28;20482;-77
2022/01/03 12:14:42;;;;;;;0.60;0.10;;;11.30;1.00;;;;;;5116451;28;20435;-78
2022/01/03 12:17:12;;;;;;;0.60;0.10;;;11.30;1.00;;;;;;5116849;28;20554;-78
2022/01/03 12:19:43;;;;;;;0.60;0.10;;;11.30;1.00;;;;;;5116622;28;20474;-74
2022/01/03 12:22:13;;;;;;;0.60;0.10;;;11.30;1.00;;;;;;5116563;28;20775;-76
2022/01/03 12:24:52;;;;;;;0.70;0.17;;;11.30;1.00;;;;;;5110302;28;20456;-77
2022/01/03 12:27:45;;;;;;;1.47;1.37;;;11.40;1.00;;;;;;5115899;28;20451;-75
2022/01/03 12:30:30;;;;;;;0.57;0.10;;;11.40;1.00;;;;;;5115288;28;20531;-76
2022/01/03 12:33:19;;;;;;;0.60;0.50;;;11.40;1.00;;;;;;5097995;28;20989;-76
2022/01/03 12:35:49;;;;;;;0.60;0.10;;;11.40;1.00;;;;;;5100067;28;20452;-75
2022/01/03 12:38:28;;;;;;;1.10;0.50;;;11.50;1.00;;;;;;5115264;28;20644;-75
2022/01/03 12:41:02;;;;;;;2.40;0.60;;;11.40;1.00;;;;;;5116695;28;20523;-76
2022/01/03 12:43:50;;;;;;;2.07;0.60;;;11.50;1.00;;;;;;5116830;28;20446;-76
2022/01/03 12:46:21;;;;;;;0.60;0.10;;;11.50;1.00;;;;;;5116900;28;20800;-78
2022/01/03 12:48:55;;;;;;;1.17;0.30;;;11.50;1.00;;;;;;5120684;28;20501;-76
2022/01/03 12:51:35;;;;;;;0.60;0.10;;;11.50;1.00;;;;;;5116406;28;20444;-77
2022/01/03 12:54:07;;;;;;;2.40;0.40;;;11.50;1.00;;;;;;5119763;28;20486;-77
2022/01/03 12:56:37;;;;;;;0.60;0.10;;;11.60;1.00;;;;;;5121753;28;20458;-75
2022/01/03 12:59:15;;;;;;;0.60;0.20;;;11.60;1.00;;;;;;5120588;28;20463;-76
2022/01/03 13:01:43;;;;;;;0.60;0.20;;;11.60;1.00;;;;;;5124634;28;20953;-77
2022/01/03 13:04:24;;;;;;;0.60;0.10;;;11.70;1.00;;;;;;5124528;28;20496;-78
2022/01/03 13:07:00;;;;;;;6.10;4.30;;;11.80;1.00;;;;;;5111525;28;20468;-77
2022/01/03 13:09:28;;;;;;;0.60;0.10;;;11.80;1.00;;;;;;5100707;28;20538;-75
2022/01/03 13:12:05;;;;;;;0.60;0.20;;;;;;;;;;5100433;28;20439;-78
2022/01/03 13:14:34;;;;;;;0.70;0.43;;;;;;;;;;5097946;28;20484;-77
2022/01/03 13:17:03;;;;;;;0.60;0.10;;;11.90;1.00;;;;;;5098832;28;20480;-77
2022/01/03 13:19:33;;;;;;;0.60;0.10;;;12.10;1.00;;;;;;5100615;28;20512;-77
2022/01/03 13:22:04;;;;;;;0.97;0.47;;;12.10;1.00;;;;;;5099295;28;20452;-75
2022/01/03 13:24:34;;;;;;;0.60;0.20;;;12.20;1.00;;;;;;5097489;28;20492;-77
2022/01/03 13:27:06;;;;;;;0.60;0.20;;;12.30;1.00;;;;;;5097778;28;20478;-77
2022/01/03 13:29:41;;;;;;;0.60;0.20;;;12.20;1.00;;;;;;5095942;28;20458;-78
2022/01/03 13:32:09;;;;;;;1.37;0.67;;;12.20;1.00;;;;;;5095946;28;20458;-77
2022/01/03 13:34:38;;;;;;;0.60;0.30;;;12.30;1.00;;;;;;5095709;28;20531;-77
2022/01/03 13:37:09;;;;;;;0.70;0.53;;;12.30;1.00;;;;;;5097002;28;20474;-76